createdAt,value
2022-08-26T00:02:01.239Z,10.30
2022-08-26T00:04:31.387Z,9.90
2022-08-26T00:07:00.889Z,10.80
2022-08-26T00:09:29.710Z,10.70
2022-08-26T00:11:58.221Z,9.60
2022-08-26T00:14:31.029Z,9.90
2022-08-26T00:17:00.475Z,10.20
2022-08-26T00:19:29.115Z,10.30
2022-08-26T00:21:57.650Z,9.90
2022-08-26T00:24:26.197Z,9.80
2022-08-26T00:26:54.773Z,9.40
2022-08-26T00:29:23.260Z,9.40
2022-08-26T00:31:51.853Z,9.80
2022-08-26T00:34:20.337Z,9.50
2022-08-26T00:36:51.805Z,9.20
2022-08-26T00:39:21.473Z,9.50
2022-08-26T00:41:50.049Z,9.10
2022-08-26T00:44:19.043Z,9.30
2022-08-26T00:46:51.951Z,9.90
2022-08-26T00:49:28.500Z,9.50
2022-08-26T00:52:02.898Z,9.40
2022-08-26T00:54:37.282Z,9.70
2022-08-26T00:57:16.282Z,10.00
2022-08-26T00:59:47.711Z,8.70
2022-08-26T01:02:20.916Z,10.30
2022-08-26T01:04:55.459Z,10.80
2022-08-26T01:07:26.150Z,10.20
2022-08-26T01:09:55.405Z,9.70
2022-08-26T01:12:25.122Z,9.90
2022-08-26T01:14:54.928Z,9.70
2022-08-26T01:17:23.572Z,11.30
2022-08-26T01:19:56.715Z,10.50
2022-08-26T01:22:33.741Z,10.00
2022-08-26T01:25:04.459Z,10.80
2022-08-26T01:27:36.138Z,10.10
2022-08-26T01:30:06.373Z,10.30
2022-08-26T01:32:35.636Z,9.60
2022-08-26T01:35:09.271Z,10.30
2022-08-26T01:37:40.517Z,9.20
2022-08-26T01:40:14.223Z,9.40
2022-08-26T01:42:46.441Z,10.20
2022-08-26T01:45:19.705Z,10.10
2022-08-26T01:47:57.012Z,9.00
2022-08-26T01:50:30.217Z,9.80
2022-08-26T01:53:02.542Z,10.10
2022-08-26T01:55:34.072Z,8.70
2022-08-26T01:58:07.810Z,9.20
2022-08-26T02:00:37.819Z,9.20
2022-08-26T02:03:17.111Z,10.70
2022-08-26T02:05:51.276Z,9.10
2022-08-26T02:08:24.680Z,8.60
2022-08-26T02:10:55.213Z,10.20
2022-08-26T02:13:26.059Z,9.50
2022-08-26T02:15:56.179Z,9.90
2022-08-26T02:18:27.874Z,8.40
2022-08-26T02:20:57.352Z,10.30
2022-08-26T02:23:26.125Z,10.00
2022-08-26T02:26:00.184Z,8.70
2022-08-26T02:28:34.205Z,8.40
2022-08-26T02:31:03.481Z,8.40
2022-08-26T02:33:33.209Z,8.20
2022-08-26T02:36:02.150Z,8.30
2022-08-26T02:38:32.748Z,9.10
2022-08-26T02:41:02.313Z,9.30
2022-08-26T02:43:31.441Z,8.30
2022-08-26T02:46:02.396Z,7.80
2022-08-26T02:48:31.367Z,8.50
2022-08-26T02:51:01.114Z,8.90
2022-08-26T02:53:31.812Z,9.10
2022-08-26T02:56:00.836Z,8.80
2022-08-26T02:58:30.021Z,9.30
2022-08-26T03:00:58.562Z,9.90
2022-08-26T03:03:27.321Z,9.20
2022-08-26T03:05:56.426Z,10.10
2022-08-26T03:08:25.028Z,9.70
2022-08-26T03:10:54.034Z,11.10
2022-08-26T03:13:22.606Z,10.30
2022-08-26T03:15:51.273Z,9.40
2022-08-26T03:18:20.093Z,9.50
2022-08-26T03:20:49.201Z,10.30
2022-08-26T03:23:18.568Z,10.00
2022-08-26T03:25:50.436Z,9.60
2022-08-26T03:28:19.643Z,9.40
2022-08-26T03:30:48.643Z,10.00
2022-08-26T03:33:18.473Z,9.50
2022-08-26T03:35:47.665Z,9.90
2022-08-26T03:38:19.969Z,10.00
2022-08-26T03:40:48.693Z,10.30
2022-08-26T03:43:19.117Z,9.40
2022-08-26T03:45:47.683Z,10.00
2022-08-26T03:48:16.123Z,9.30
2022-08-26T03:50:44.850Z,9.60
2022-08-26T03:53:13.587Z,9.60
2022-08-26T03:55:42.344Z,10.00
2022-08-26T03:58:12.000Z,9.80
2022-08-26T04:00:40.627Z,9.90
2022-08-26T04:03:11.161Z,10.80
2022-08-26T04:05:41.795Z,11.10
2022-08-26T04:08:10.381Z,10.80
2022-08-26T04:10:39.097Z,10.20
2022-08-26T04:13:07.780Z,9.30
2022-08-26T04:15:36.500Z,10.60
2022-08-26T04:18:05.430Z,10.10
2022-08-26T04:20:34.113Z,10.80
2022-08-26T04:23:02.679Z,10.80
2022-08-26T04:25:31.611Z,10.30
2022-08-26T04:28:00.611Z,9.70
2022-08-26T04:30:29.249Z,9.40
2022-08-26T04:32:58.287Z,9.10
2022-08-26T04:35:26.727Z,8.70
2022-08-26T04:37:55.402Z,8.20
2022-08-26T04:40:26.864Z,8.60
2022-08-26T04:42:55.796Z,8.40
2022-08-26T04:45:25.075Z,8.30
2022-08-26T04:47:55.726Z,8.00
2022-08-26T04:50:25.626Z,8.70
2022-08-26T04:52:55.558Z,8.60
2022-08-26T04:55:38.253Z,9.00
2022-08-26T04:58:08.795Z,10.40
2022-08-26T05:00:39.189Z,9.30
2022-08-26T05:03:10.313Z,10.30
2022-08-26T05:05:41.961Z,9.70
2022-08-26T05:08:11.807Z,9.50
2022-08-26T05:10:42.191Z,9.50
2022-08-26T05:13:15.743Z,9.10
2022-08-26T05:15:45.432Z,9.70
2022-08-26T05:18:15.980Z,9.80
2022-08-26T05:20:54.018Z,9.00
2022-08-26T05:23:24.282Z,9.30
2022-08-26T05:25:59.364Z,9.60
2022-08-26T05:28:30.199Z,9.70
2022-08-26T05:30:59.005Z,9.60
2022-08-26T05:33:28.781Z,10.80
2022-08-26T05:35:57.350Z,9.30
2022-08-26T05:38:26.816Z,10.20
2022-08-26T05:40:59.339Z,9.90
2022-08-26T05:43:28.416Z,9.80
2022-08-26T05:46:06.048Z,10.00
2022-08-26T05:48:34.776Z,10.80
2022-08-26T05:51:05.937Z,10.20
2022-08-26T05:53:35.150Z,11.00
2022-08-26T05:56:07.011Z,10.00
2022-08-26T05:58:38.513Z,10.50
2022-08-26T06:01:10.103Z,9.80
2022-08-26T06:03:43.873Z,9.10
2022-08-26T06:06:14.807Z,11.30
2022-08-26T06:08:49.642Z,10.20
2022-08-26T06:11:20.037Z,10.90
2022-08-26T06:13:49.129Z,12.40
2022-08-26T06:16:22.712Z,11.10
2022-08-26T06:18:54.029Z,10.40
2022-08-26T06:21:25.058Z,10.90
2022-08-26T06:24:13.998Z,10.40
2022-08-26T06:26:49.755Z,10.20
2022-08-26T06:29:24.664Z,9.90
2022-08-26T06:31:56.132Z,10.50
2022-08-26T06:34:29.642Z,11.10
2022-08-26T06:37:01.635Z,10.60
2022-08-26T06:39:31.630Z,10.60
2022-08-26T06:42:02.682Z,10.80
2022-08-26T06:44:35.473Z,11.30
2022-08-26T06:47:04.519Z,11.10
2022-08-26T06:49:33.288Z,11.90
2022-08-26T06:52:02.274Z,11.00
2022-08-26T06:54:30.939Z,11.80
2022-08-26T06:57:00.537Z,10.40
2022-08-26T06:59:30.522Z,10.80
2022-08-26T07:01:59.171Z,11.90
2022-08-26T07:04:28.874Z,12.60
2022-08-26T07:06:57.497Z,12.00
2022-08-26T07:09:28.620Z,11.90
2022-08-26T07:11:57.182Z,12.60
2022-08-26T07:14:26.176Z,11.70
2022-08-26T07:16:55.707Z,11.70
2022-08-26T07:19:27.681Z,11.60
2022-08-26T07:22:04.309Z,11.50
2022-08-26T07:24:35.376Z,11.50
2022-08-26T07:29:35.377Z,11.40
2022-08-26T07:32:05.311Z,11.70
2022-08-26T07:34:34.457Z,11.70
2022-08-26T07:37:03.358Z,10.90
2022-08-26T07:39:32.792Z,11.70
2022-08-26T07:42:07.417Z,11.70
2022-08-26T07:44:37.116Z,10.90
2022-08-26T07:47:10.558Z,10.20
2022-08-26T07:49:57.250Z,9.50
2022-08-26T07:52:28.774Z,10.90
2022-08-26T07:55:00.005Z,10.60
2022-08-26T07:57:29.802Z,9.90
2022-08-26T07:59:58.536Z,9.70
2022-08-26T08:02:29.823Z,9.70
2022-08-26T08:04:59.365Z,10.00
2022-08-26T08:07:38.266Z,10.40
2022-08-26T08:10:11.577Z,9.40
2022-08-26T08:12:40.592Z,9.40
2022-08-26T08:15:13.096Z,10.30
2022-08-26T08:17:55.663Z,10.20
2022-08-26T08:20:29.301Z,9.50
2022-08-26T08:22:58.726Z,9.80
2022-08-26T08:25:27.238Z,9.50
2022-08-26T08:27:55.852Z,10.10
2022-08-26T08:30:25.750Z,10.00
2022-08-26T08:32:55.357Z,10.00
2022-08-26T08:35:25.887Z,10.20
2022-08-26T08:40:26.403Z,9.80
2022-08-26T08:43:01.097Z,9.70
2022-08-26T08:45:37.251Z,8.90
2022-08-26T08:48:13.115Z,9.50
2022-08-26T08:50:45.930Z,9.20
2022-08-26T08:53:17.810Z,10.00
2022-08-26T08:55:58.077Z,9.80
2022-08-26T08:58:35.400Z,9.80
2022-08-26T09:01:11.810Z,9.60
2022-08-26T09:03:50.938Z,9.00
2022-08-26T09:06:20.578Z,9.80
2022-08-26T09:08:51.618Z,9.30
2022-08-26T09:11:20.597Z,9.40
2022-08-26T09:13:51.733Z,9.20
2022-08-26T09:16:24.740Z,9.20
2022-08-26T09:19:14.864Z,9.10
2022-08-26T09:21:55.667Z,8.60
2022-08-26T09:24:28.569Z,8.10
2022-08-26T09:26:58.445Z,7.90
2022-08-26T09:29:28.949Z,7.90
2022-08-26T09:32:18.753Z,7.40
2022-08-26T09:34:58.450Z,6.40
2022-08-26T09:37:39.135Z,6.80
2022-08-26T09:40:18.376Z,7.10
2022-08-26T09:43:07.677Z,6.10
2022-08-26T09:45:37.124Z,6.20
2022-08-26T09:48:08.358Z,5.70
2022-08-26T09:50:39.289Z,6.00
2022-08-26T09:53:17.425Z,6.60
2022-08-26T09:55:54.469Z,5.20
2022-08-26T09:58:37.798Z,5.20
2022-08-26T10:01:13.957Z,5.60
2022-08-26T10:03:44.437Z,5.40
2022-08-26T10:06:26.118Z,4.70
2022-08-26T10:08:58.397Z,4.40
2022-08-26T10:11:34.381Z,4.90
2022-08-26T10:14:17.030Z,4.80
2022-08-26T10:16:52.511Z,4.60
2022-08-26T10:19:40.187Z,5.00
2022-08-26T10:22:23.053Z,4.70
2022-08-26T10:24:57.343Z,4.20
2022-08-26T10:27:40.585Z,4.10
2022-08-26T10:30:24.141Z,4.90
2022-08-26T10:32:57.991Z,4.40
2022-08-26T10:35:27.300Z,3.90
2022-08-26T10:38:03.362Z,4.50
2022-08-26T10:40:44.880Z,5.20
2022-08-26T10:43:21.054Z,4.00
2022-08-26T10:45:53.046Z,4.00
2022-08-26T10:48:35.617Z,3.80
2022-08-26T10:51:05.763Z,3.90
2022-08-26T10:53:44.886Z,3.20
2022-08-26T10:56:24.669Z,3.50
2022-08-26T10:59:03.882Z,3.20
2022-08-26T11:01:42.992Z,3.20
2022-08-26T11:04:23.537Z,4.20
2022-08-26T11:07:24.899Z,3.30
2022-08-26T11:09:53.448Z,2.80
2022-08-26T11:12:57.223Z,3.40
2022-08-26T11:16:09.899Z,2.90
2022-08-26T11:18:48.061Z,2.80
2022-08-26T11:25:00.097Z,3.00
2022-08-26T11:28:02.976Z,2.80
2022-08-26T11:30:43.993Z,2.90
2022-08-26T11:33:59.470Z,2.70
2022-08-26T11:36:42.523Z,2.90
2022-08-26T11:39:19.665Z,2.70
2022-08-26T11:41:52.755Z,2.90
2022-08-26T11:44:24.463Z,3.60
2022-08-26T11:46:58.899Z,2.90
2022-08-26T11:49:29.229Z,2.50
2022-08-26T11:52:15.548Z,2.70
2022-08-26T11:55:02.613Z,2.70
2022-08-26T11:57:34.299Z,2.60
2022-08-26T12:00:07.417Z,2.60
2022-08-26T12:02:40.942Z,2.80
2022-08-26T12:05:12.292Z,2.70
2022-08-26T12:07:42.631Z,2.70
2022-08-26T12:10:24.500Z,2.50
2022-08-26T12:13:00.079Z,2.40
2022-08-26T12:15:31.385Z,2.50
2022-08-26T12:20:47.944Z,2.50
2022-08-26T12:23:25.027Z,2.80
2022-08-26T12:26:05.224Z,2.90
2022-08-26T12:28:41.176Z,3.40
2022-08-26T12:31:10.042Z,2.70
2022-08-26T12:33:38.988Z,2.50
2022-08-26T12:36:08.154Z,2.70
2022-08-26T12:38:39.866Z,2.40
2022-08-26T12:41:08.555Z,3.10
2022-08-26T12:43:40.148Z,2.60
2022-08-26T12:46:11.032Z,2.50
2022-08-26T12:48:44.177Z,2.70
2022-08-26T12:51:23.029Z,2.70
2022-08-26T12:53:52.427Z,3.00
2022-08-26T12:56:27.407Z,3.30
2022-08-26T12:59:10.295Z,2.80
2022-08-26T13:01:44.104Z,2.80
2022-08-26T13:04:38.151Z,3.00
2022-08-26T13:07:29.763Z,2.70
2022-08-26T13:12:30.436Z,3.00
2022-08-26T13:15:00.868Z,3.00
2022-08-26T13:17:30.644Z,3.40
2022-08-26T13:20:03.819Z,2.90
2022-08-26T13:22:33.336Z,3.10
2022-08-26T13:25:02.080Z,3.10
2022-08-26T13:27:30.886Z,2.60
2022-08-26T13:30:00.961Z,2.90
2022-08-26T13:32:31.145Z,3.20
2022-08-26T13:35:00.004Z,3.40
2022-08-26T13:37:35.609Z,3.00
2022-08-26T13:40:06.604Z,3.40
2022-08-26T13:42:35.482Z,2.90
2022-08-26T13:45:06.441Z,2.70
2022-08-26T13:47:37.840Z,3.10
2022-08-26T13:50:07.866Z,3.00
2022-08-26T13:52:36.710Z,2.70
2022-08-26T13:55:09.300Z,3.30
2022-08-26T13:57:38.152Z,3.10
2022-08-26T14:00:10.981Z,2.90
2022-08-26T14:02:40.230Z,3.20
2022-08-26T14:05:09.913Z,3.30
2022-08-26T14:07:41.529Z,3.40
2022-08-26T14:10:12.124Z,2.80
2022-08-26T14:12:40.699Z,2.90
2022-08-26T14:15:11.761Z,3.00
2022-08-26T14:17:40.411Z,2.70
2022-08-26T14:20:13.919Z,3.00
2022-08-26T14:23:03.406Z,3.10
2022-08-26T14:25:33.335Z,3.10
2022-08-26T14:28:01.915Z,3.20
2022-08-26T14:30:34.272Z,3.00
2022-08-26T14:33:03.004Z,3.50
2022-08-26T14:35:32.011Z,2.90
2022-08-26T14:38:00.500Z,2.80
2022-08-26T14:40:31.159Z,3.60
2022-08-26T14:43:00.576Z,2.80
2022-08-26T14:45:29.448Z,3.00
2022-08-26T14:47:59.194Z,2.60
2022-08-26T14:50:27.799Z,2.70
2022-08-26T14:53:15.033Z,3.10
2022-08-26T14:55:44.326Z,3.70
2022-08-26T14:58:13.671Z,3.00
2022-08-26T15:00:44.530Z,2.50
2022-08-26T15:05:48.882Z,2.70
2022-08-26T15:08:20.155Z,2.60
2022-08-26T15:10:50.519Z,2.30
2022-08-26T15:13:19.703Z,2.60
2022-08-26T15:15:52.039Z,3.50
2022-08-26T15:18:21.723Z,2.80
2022-08-26T15:20:52.062Z,3.10
2022-08-26T15:23:20.788Z,2.80
2022-08-26T15:25:49.880Z,2.80
2022-08-26T15:28:18.500Z,3.10
2022-08-26T15:30:47.309Z,2.90
2022-08-26T15:33:16.099Z,2.60
2022-08-26T15:35:44.783Z,2.70
2022-08-26T15:38:13.721Z,2.90
2022-08-26T15:40:43.521Z,2.90
2022-08-26T15:43:27.627Z,2.80
2022-08-26T15:45:58.231Z,2.70
2022-08-26T15:48:27.875Z,2.70
2022-08-26T15:51:00.035Z,2.60
2022-08-26T15:53:32.447Z,3.10
2022-08-26T15:56:03.703Z,2.50
2022-08-26T15:58:33.630Z,2.70
2022-08-26T16:01:05.942Z,2.80
2022-08-26T16:03:35.696Z,2.50
2022-08-26T16:06:06.288Z,3.10
2022-08-26T16:08:36.697Z,2.60
2022-08-26T16:11:06.963Z,2.50
2022-08-26T16:13:40.120Z,2.70
2022-08-26T16:16:09.997Z,3.20
2022-08-26T16:18:39.085Z,3.30
2022-08-26T16:21:13.679Z,3.30
2022-08-26T16:23:45.111Z,3.20
2022-08-26T16:28:43.968Z,3.10
2022-08-26T16:31:13.264Z,2.80
2022-08-26T16:33:42.073Z,3.10
2022-08-26T16:36:11.938Z,3.40
2022-08-26T16:38:41.693Z,3.20
2022-08-26T16:41:10.425Z,3.90
2022-08-26T16:43:39.120Z,3.40
2022-08-26T16:46:10.779Z,3.20
2022-08-26T16:48:39.667Z,3.50
2022-08-26T16:51:12.800Z,2.80
2022-08-26T16:53:41.820Z,2.50
2022-08-26T16:56:14.290Z,3.90
2022-08-26T16:58:43.174Z,2.80
2022-08-26T17:01:11.874Z,3.00
2022-08-26T17:03:40.738Z,2.90
2022-08-26T17:06:11.006Z,3.00
2022-08-26T17:08:40.567Z,2.90
2022-08-26T17:11:09.505Z,3.70
2022-08-26T17:13:38.912Z,3.50
2022-08-26T17:16:09.964Z,2.80
2022-08-26T17:18:38.929Z,3.10
2022-08-26T17:21:10.699Z,2.90
2022-08-26T17:23:40.953Z,2.90
2022-08-26T17:26:11.401Z,3.00
2022-08-26T17:28:40.173Z,3.10
2022-08-26T17:31:10.915Z,3.20
2022-08-26T17:33:40.435Z,2.80
2022-08-26T17:36:09.803Z,3.30
2022-08-26T17:38:39.039Z,3.30
2022-08-26T17:41:09.520Z,3.40
2022-08-26T17:43:40.079Z,3.50
2022-08-26T17:46:11.282Z,3.70
2022-08-26T17:48:41.109Z,3.40
2022-08-26T17:51:11.584Z,3.40
2022-08-26T17:53:40.901Z,3.90
2022-08-26T17:56:11.000Z,3.90
2022-08-26T17:58:40.411Z,3.20
2022-08-26T18:01:08.912Z,3.20
2022-08-26T18:03:37.667Z,3.50
2022-08-26T18:06:11.498Z,3.80
2022-08-26T18:08:41.157Z,3.60
2022-08-26T18:11:12.245Z,4.00
2022-08-26T18:13:46.058Z,4.30
2022-08-26T18:16:18.155Z,4.40
2022-08-26T18:18:47.937Z,4.20
2022-08-26T18:21:19.210Z,3.50
2022-08-26T18:23:48.632Z,3.70
2022-08-26T18:26:19.915Z,3.70
2022-08-26T18:28:49.245Z,4.00
2022-08-26T18:31:18.962Z,3.60
2022-08-26T18:33:49.516Z,3.70
2022-08-26T18:36:21.971Z,4.40
2022-08-26T18:38:52.637Z,3.80
2022-08-26T18:41:24.228Z,3.60
2022-08-26T18:43:54.745Z,3.40
2022-08-26T18:46:26.116Z,3.80
2022-08-26T18:48:57.312Z,4.10
2022-08-26T18:51:29.487Z,4.60
2022-08-26T18:54:01.137Z,5.40
2022-08-26T18:56:31.917Z,5.80
2022-08-26T18:59:01.424Z,6.10
2022-08-26T19:01:32.694Z,6.80
2022-08-26T19:04:04.742Z,6.50
2022-08-26T19:06:37.802Z,5.60
2022-08-26T19:09:09.966Z,5.60
2022-08-26T19:11:43.992Z,5.60
2022-08-26T19:14:16.970Z,5.50
2022-08-26T19:16:51.824Z,6.90
2022-08-26T19:19:24.239Z,6.20
2022-08-26T19:21:56.936Z,6.00
2022-08-26T19:24:30.601Z,5.60
2022-08-26T19:27:01.272Z,5.50
2022-08-26T19:29:32.836Z,6.30
2022-08-26T19:34:45.443Z,5.50
2022-08-26T19:37:14.331Z,5.80
2022-08-26T19:39:43.179Z,4.60
2022-08-26T19:42:11.789Z,4.10
2022-08-26T19:44:58.523Z,4.30
2022-08-26T19:47:27.156Z,4.60
2022-08-26T19:49:56.279Z,4.60
2022-08-26T19:52:29.912Z,5.00
2022-08-26T19:54:59.973Z,4.90
2022-08-26T19:57:28.681Z,4.60
2022-08-26T19:59:57.310Z,4.70
2022-08-26T20:02:25.964Z,4.90
2022-08-26T20:04:55.405Z,4.80
2022-08-26T20:07:23.812Z,5.10
2022-08-26T20:09:52.487Z,5.20
2022-08-26T20:12:21.023Z,6.10
2022-08-26T20:14:49.519Z,5.60
2022-08-26T20:17:17.992Z,5.50
2022-08-26T20:20:01.583Z,6.50
2022-08-26T20:22:30.618Z,6.30
2022-08-26T20:24:59.241Z,6.60
2022-08-26T20:27:38.097Z,8.20
2022-08-26T20:30:10.265Z,8.00
2022-08-26T20:32:39.711Z,6.40
2022-08-26T20:35:11.835Z,8.10
2022-08-26T20:37:41.048Z,7.10
2022-08-26T20:40:13.187Z,6.90
2022-08-26T20:42:41.932Z,7.00
2022-08-26T20:45:11.566Z,7.30
2022-08-26T20:47:40.744Z,8.80
2022-08-26T20:50:09.978Z,8.50
2022-08-26T20:52:38.884Z,7.20
2022-08-26T20:55:09.164Z,7.20
2022-08-26T20:57:37.671Z,8.00
2022-08-26T21:00:08.274Z,8.00
2022-08-26T21:02:36.933Z,8.20
2022-08-26T21:05:07.741Z,6.70
2022-08-26T21:07:36.260Z,5.90
2022-08-26T21:10:06.437Z,7.40
2022-08-26T21:12:35.073Z,6.20
2022-08-26T21:15:04.131Z,6.60
2022-08-26T21:17:33.606Z,5.30
2022-08-26T21:20:02.960Z,5.80
2022-08-26T21:22:31.717Z,5.40
2022-08-26T21:25:00.933Z,5.60
2022-08-26T21:27:29.584Z,5.90
2022-08-26T21:29:58.346Z,6.60
2022-08-26T21:32:27.343Z,6.00
2022-08-26T21:34:57.070Z,7.10
2022-08-26T21:37:27.419Z,7.80
2022-08-26T21:39:57.374Z,7.60
2022-08-26T21:42:26.723Z,7.70
2022-08-26T21:44:55.359Z,7.40
2022-08-26T21:47:24.317Z,7.00
2022-08-26T21:49:53.670Z,8.50
2022-08-26T21:52:22.274Z,7.00
2022-08-26T21:54:50.915Z,7.30
2022-08-26T21:57:19.966Z,7.30
2022-08-26T21:59:48.604Z,7.10
2022-08-26T22:02:17.162Z,7.60
2022-08-26T22:04:48.828Z,7.90
2022-08-26T22:07:19.473Z,8.10
2022-08-26T22:09:49.135Z,8.00
2022-08-26T22:12:18.519Z,7.40
2022-08-26T22:14:47.377Z,7.50
2022-08-26T22:17:16.399Z,7.70
2022-08-26T22:19:46.383Z,6.80
2022-08-26T22:22:15.912Z,6.70
2022-08-26T22:24:44.622Z,6.90
2022-08-26T22:27:13.648Z,7.20
2022-08-26T22:29:42.421Z,8.30
2022-08-26T22:32:11.077Z,8.20
2022-08-26T22:34:39.965Z,7.10
2022-08-26T22:37:08.460Z,7.40
2022-08-26T22:39:37.632Z,7.80
2022-08-26T22:42:06.593Z,6.50
2022-08-26T22:44:36.955Z,6.60
2022-08-26T22:47:06.069Z,6.70
2022-08-26T22:49:34.789Z,6.90
2022-08-26T22:52:04.039Z,6.50
2022-08-26T22:54:32.637Z,7.20
2022-08-26T22:57:01.342Z,7.30
2022-08-26T22:59:50.045Z,7.80
2022-08-26T23:02:19.166Z,7.90
2022-08-26T23:04:49.375Z,7.50
2022-08-26T23:07:18.065Z,7.60
2022-08-26T23:09:46.673Z,7.20
2022-08-26T23:12:15.154Z,7.60
2022-08-26T23:14:43.736Z,7.80
2022-08-26T23:17:13.745Z,8.10
2022-08-26T23:19:42.898Z,8.20
2022-08-26T23:22:11.739Z,8.10
2022-08-26T23:24:40.390Z,8.30
2022-08-26T23:27:09.138Z,7.50
2022-08-26T23:29:39.133Z,8.20
2022-08-26T23:32:07.839Z,8.80
2022-08-26T23:34:54.615Z,7.90
2022-08-26T23:37:23.334Z,7.60
2022-08-26T23:39:54.566Z,7.40
2022-08-26T23:42:23.249Z,7.80
2022-08-26T23:44:51.958Z,7.00
2022-08-26T23:47:20.575Z,7.90
2022-08-26T23:49:49.207Z,7.90
2022-08-26T23:52:35.771Z,7.80
2022-08-26T23:55:05.866Z,7.80
2022-08-26T23:57:37.773Z,7.90
